sensor_id;sensor_type;location;lat;lon;timestamp;P1;durP1;ratioP1;P2;durP2;ratioP2
830;SDS011;397;50.564;7.272;2024-03-06T00:00:10;13.70;;;10.03;;
830;SDS011;397;50.564;7.272;2024-03-06T00:02:37;13.37;;;10.83;;
830;SDS011;397;50.564;7.272;2024-03-06T00:05:04;12.30;;;9.30;;
830;SDS011;397;50.564;7.272;2024-03-06T00:07:34;10.63;;;9.07;;
830;SDS011;397;50.564;7.272;2024-03-06T00:10:01;11.87;;;10.70;;
830;SDS011;397;50.564;7.272;2024-03-06T00:12:30;16.73;;;10.33;;
830;SDS011;397;50.564;7.272;2024-03-06T00:14:57;10.07;;;9.03;;
830;SDS011;397;50.564;7.272;2024-03-06T00:17:24;10.77;;;9.40;;
830;SDS011;397;50.564;7.272;2024-03-06T00:19:52;9.27;;;8.07;;
830;SDS011;397;50.564;7.272;2024-03-06T00:22:19;10.47;;;8.20;;
830;SDS011;397;50.564;7.272;2024-03-06T00:24:46;8.33;;;7.43;;
830;SDS011;397;50.564;7.272;2024-03-06T00:27:14;9.30;;;7.37;;
830;SDS011;397;50.564;7.272;2024-03-06T00:29:41;8.87;;;7.97;;
830;SDS011;397;50.564;7.272;2024-03-06T00:32:08;10.70;;;7.07;;
830;SDS011;397;50.564;7.272;2024-03-06T00:34:35;8.97;;;7.67;;
830;SDS011;397;50.564;7.272;2024-03-06T00:37:03;9.27;;;6.73;;
830;SDS011;397;50.564;7.272;2024-03-06T00:39:30;8.57;;;6.43;;
830;SDS011;397;50.564;7.272;2024-03-06T00:41:57;7.77;;;6.80;;
830;SDS011;397;50.564;7.272;2024-03-06T00:44:25;9.00;;;7.00;;
830;SDS011;397;50.564;7.272;2024-03-06T00:46:52;7.90;;;6.33;;
830;SDS011;397;50.564;7.272;2024-03-06T00:49:19;11.70;;;7.43;;
830;SDS011;397;50.564;7.272;2024-03-06T00:51:47;11.70;;;8.50;;
830;SDS011;397;50.564;7.272;2024-03-06T00:54:14;9.60;;;7.50;;
830;SDS011;397;50.564;7.272;2024-03-06T00:56:42;9.43;;;6.60;;
830;SDS011;397;50.564;7.272;2024-03-06T00:59:09;10.10;;;6.87;;
830;SDS011;397;50.564;7.272;2024-03-06T01:01:36;7.40;;;6.70;;
830;SDS011;397;50.564;7.272;2024-03-06T01:04:04;7.37;;;5.90;;
830;SDS011;397;50.564;7.272;2024-03-06T01:06:31;13.73;;;7.87;;
830;SDS011;397;50.564;7.272;2024-03-06T01:08:59;19.60;;;13.30;;
830;SDS011;397;50.564;7.272;2024-03-06T01:11:26;22.50;;;13.80;;
830;SDS011;397;50.564;7.272;2024-03-06T01:13:54;20.23;;;14.17;;
830;SDS011;397;50.564;7.272;2024-03-06T01:16:21;19.73;;;14.20;;
830;SDS011;397;50.564;7.272;2024-03-06T01:18:48;15.90;;;11.30;;
830;SDS011;397;50.564;7.272;2024-03-06T01:21:16;19.30;;;11.30;;
830;SDS011;397;50.564;7.272;2024-03-06T01:23:43;15.07;;;11.73;;
830;SDS011;397;50.564;7.272;2024-03-06T01:26:10;15.23;;;11.20;;
830;SDS011;397;50.564;7.272;2024-03-06T01:28:38;15.83;;;10.13;;
830;SDS011;397;50.564;7.272;2024-03-06T01:31:05;13.97;;;10.50;;
830;SDS011;397;50.564;7.272;2024-03-06T01:33:33;14.50;;;11.87;;
830;SDS011;397;50.564;7.272;2024-03-06T01:36:02;17.00;;;12.63;;
830;SDS011;397;50.564;7.272;2024-03-06T01:38:29;22.00;;;16.10;;
830;SDS011;397;50.564;7.272;2024-03-06T01:40:56;44.47;;;18.50;;
830;SDS011;397;50.564;7.272;2024-03-06T01:43:24;54.93;;;18.00;;
830;SDS011;397;50.564;7.272;2024-03-06T01:45:51;56.30;;;20.07;;
830;SDS011;397;50.564;7.272;2024-03-06T01:48:23;95.00;;;25.37;;
830;SDS011;397;50.564;7.272;2024-03-06T01:50:52;56.13;;;20.07;;
830;SDS011;397;50.564;7.272;2024-03-06T01:53:20;44.67;;;17.73;;
830;SDS011;397;50.564;7.272;2024-03-06T01:55:47;28.70;;;16.03;;
830;SDS011;397;50.564;7.272;2024-03-06T01:58:15;32.20;;;17.80;;
830;SDS011;397;50.564;7.272;2024-03-06T02:00:42;26.03;;;15.37;;
830;SDS011;397;50.564;7.272;2024-03-06T02:03:10;24.60;;;16.23;;
830;SDS011;397;50.564;7.272;2024-03-06T02:05:38;26.43;;;16.50;;
830;SDS011;397;50.564;7.272;2024-03-06T02:08:05;27.83;;;15.90;;
830;SDS011;397;50.564;7.272;2024-03-06T02:10:34;20.33;;;13.40;;
830;SDS011;397;50.564;7.272;2024-03-06T02:13:01;21.63;;;14.67;;
830;SDS011;397;50.564;7.272;2024-03-06T02:15:29;32.23;;;16.00;;
830;SDS011;397;50.564;7.272;2024-03-06T02:17:56;19.73;;;12.43;;
830;SDS011;397;50.564;7.272;2024-03-06T02:20:24;15.20;;;11.03;;
830;SDS011;397;50.564;7.272;2024-03-06T02:22:51;19.17;;;12.13;;
830;SDS011;397;50.564;7.272;2024-03-06T02:25:18;15.37;;;10.97;;
830;SDS011;397;50.564;7.272;2024-03-06T02:27:46;18.80;;;12.03;;
830;SDS011;397;50.564;7.272;2024-03-06T02:30:18;30.13;;;16.13;;
830;SDS011;397;50.564;7.272;2024-03-06T02:32:44;21.03;;;14.27;;
830;SDS011;397;50.564;7.272;2024-03-06T02:35:11;20.43;;;11.23;;
830;SDS011;397;50.564;7.272;2024-03-06T02:37:41;19.30;;;12.50;;
830;SDS011;397;50.564;7.272;2024-03-06T02:40:08;12.60;;;9.90;;
830;SDS011;397;50.564;7.272;2024-03-06T02:42:36;13.10;;;9.50;;
830;SDS011;397;50.564;7.272;2024-03-06T02:45:06;12.63;;;9.30;;
830;SDS011;397;50.564;7.272;2024-03-06T02:47:34;11.93;;;9.00;;
830;SDS011;397;50.564;7.272;2024-03-06T02:50:01;15.50;;;11.20;;
830;SDS011;397;50.564;7.272;2024-03-06T02:52:29;13.47;;;10.23;;
830;SDS011;397;50.564;7.272;2024-03-06T02:54:56;9.23;;;8.17;;
830;SDS011;397;50.564;7.272;2024-03-06T02:57:26;11.23;;;8.47;;
830;SDS011;397;50.564;7.272;2024-03-06T02:59:52;12.03;;;8.90;;
830;SDS011;397;50.564;7.272;2024-03-06T03:02:20;12.90;;;8.40;;
830;SDS011;397;50.564;7.272;2024-03-06T03:04:47;9.37;;;7.87;;
830;SDS011;397;50.564;7.272;2024-03-06T03:07:15;14.27;;;11.10;;
830;SDS011;397;50.564;7.272;2024-03-06T03:09:42;21.27;;;10.80;;
830;SDS011;397;50.564;7.272;2024-03-06T03:12:09;16.30;;;11.40;;
830;SDS011;397;50.564;7.272;2024-03-06T03:14:37;15.90;;;10.27;;
830;SDS011;397;50.564;7.272;2024-03-06T03:17:04;13.87;;;9.70;;
830;SDS011;397;50.564;7.272;2024-03-06T03:19:32;15.13;;;10.13;;
830;SDS011;397;50.564;7.272;2024-03-06T03:21:59;12.63;;;10.70;;
830;SDS011;397;50.564;7.272;2024-03-06T03:24:26;12.57;;;8.50;;
830;SDS011;397;50.564;7.272;2024-03-06T03:26:54;15.83;;;9.87;;
830;SDS011;397;50.564;7.272;2024-03-06T03:29:21;14.57;;;9.97;;
830;SDS011;397;50.564;7.272;2024-03-06T03:31:48;20.33;;;11.33;;
830;SDS011;397;50.564;7.272;2024-03-06T03:34:15;19.00;;;11.67;;
830;SDS011;397;50.564;7.272;2024-03-06T03:36:43;19.83;;;12.90;;
830;SDS011;397;50.564;7.272;2024-03-06T03:39:10;23.10;;;11.97;;
830;SDS011;397;50.564;7.272;2024-03-06T03:41:44;28.70;;;12.93;;
830;SDS011;397;50.564;7.272;2024-03-06T03:44:12;16.33;;;12.20;;
830;SDS011;397;50.564;7.272;2024-03-06T03:46:40;15.23;;;11.43;;
830;SDS011;397;50.564;7.272;2024-03-06T03:49:07;17.00;;;11.73;;
830;SDS011;397;50.564;7.272;2024-03-06T03:51:37;18.20;;;12.40;;
830;SDS011;397;50.564;7.272;2024-03-06T03:54:04;25.93;;;12.53;;
830;SDS011;397;50.564;7.272;2024-03-06T03:56:32;26.70;;;11.40;;
830;SDS011;397;50.564;7.272;2024-03-06T03:58:59;25.17;;;10.87;;
830;SDS011;397;50.564;7.272;2024-03-06T04:01:27;17.00;;;11.70;;
830;SDS011;397;50.564;7.272;2024-03-06T04:03:55;17.60;;;10.40;;
830;SDS011;397;50.564;7.272;2024-03-06T04:06:22;35.30;;;12.77;;
830;SDS011;397;50.564;7.272;2024-03-06T04:08:50;27.93;;;11.10;;
830;SDS011;397;50.564;7.272;2024-03-06T04:11:17;26.37;;;11.57;;
830;SDS011;397;50.564;7.272;2024-03-06T04:13:44;21.73;;;10.77;;
830;SDS011;397;50.564;7.272;2024-03-06T04:16:15;21.77;;;13.03;;
830;SDS011;397;50.564;7.272;2024-03-06T04:18:41;18.97;;;10.93;;
830;SDS011;397;50.564;7.272;2024-03-06T04:21:08;29.50;;;12.67;;
830;SDS011;397;50.564;7.272;2024-03-06T04:23:36;22.73;;;13.23;;
830;SDS011;397;50.564;7.272;2024-03-06T04:26:04;23.00;;;10.77;;
830;SDS011;397;50.564;7.272;2024-03-06T04:28:32;18.83;;;10.83;;
830;SDS011;397;50.564;7.272;2024-03-06T04:30:59;21.03;;;12.20;;
830;SDS011;397;50.564;7.272;2024-03-06T04:33:26;25.33;;;14.17;;
830;SDS011;397;50.564;7.272;2024-03-06T04:35:54;26.37;;;14.23;;
830;SDS011;397;50.564;7.272;2024-03-06T04:38:21;29.27;;;14.70;;
830;SDS011;397;50.564;7.272;2024-03-06T04:40:48;25.33;;;16.50;;
830;SDS011;397;50.564;7.272;2024-03-06T04:43:15;22.67;;;13.43;;
830;SDS011;397;50.564;7.272;2024-03-06T04:45:43;23.23;;;13.63;;
830;SDS011;397;50.564;7.272;2024-03-06T04:48:10;19.90;;;12.53;;
830;SDS011;397;50.564;7.272;2024-03-06T04:50:38;19.87;;;11.03;;
830;SDS011;397;50.564;7.272;2024-03-06T04:53:05;19.47;;;12.37;;
830;SDS011;397;50.564;7.272;2024-03-06T04:55:33;24.63;;;12.40;;
830;SDS011;397;50.564;7.272;2024-03-06T04:58:01;20.20;;;12.47;;
830;SDS011;397;50.564;7.272;2024-03-06T05:00:29;19.60;;;11.50;;
830;SDS011;397;50.564;7.272;2024-03-06T05:02:58;25.53;;;14.17;;
830;SDS011;397;50.564;7.272;2024-03-06T05:05:25;22.17;;;14.93;;
830;SDS011;397;50.564;7.272;2024-03-06T05:07:53;25.10;;;14.43;;
830;SDS011;397;50.564;7.272;2024-03-06T05:10:20;23.20;;;14.63;;
830;SDS011;397;50.564;7.272;2024-03-06T05:12:47;24.90;;;14.57;;
830;SDS011;397;50.564;7.272;2024-03-06T05:15:15;27.23;;;16.00;;
830;SDS011;397;50.564;7.272;2024-03-06T05:17:42;29.17;;;14.73;;
830;SDS011;397;50.564;7.272;2024-03-06T05:20:10;24.10;;;14.70;;
830;SDS011;397;50.564;7.272;2024-03-06T05:22:37;28.50;;;13.93;;
830;SDS011;397;50.564;7.272;2024-03-06T05:25:05;27.73;;;14.33;;
830;SDS011;397;50.564;7.272;2024-03-06T05:27:32;23.57;;;12.43;;
830;SDS011;397;50.564;7.272;2024-03-06T05:29:59;29.93;;;14.63;;
830;SDS011;397;50.564;7.272;2024-03-06T05:32:27;21.03;;;14.50;;
830;SDS011;397;50.564;7.272;2024-03-06T05:34:54;22.10;;;13.50;;
830;SDS011;397;50.564;7.272;2024-03-06T05:37:21;24.27;;;14.27;;
830;SDS011;397;50.564;7.272;2024-03-06T05:39:48;23.77;;;16.87;;
830;SDS011;397;50.564;7.272;2024-03-06T05:42:16;19.43;;;14.40;;
830;SDS011;397;50.564;7.272;2024-03-06T05:44:43;26.57;;;17.00;;
830;SDS011;397;50.564;7.272;2024-03-06T05:47:11;23.97;;;15.70;;
830;SDS011;397;50.564;7.272;2024-03-06T05:49:38;26.87;;;15.90;;
830;SDS011;397;50.564;7.272;2024-03-06T05:52:05;26.93;;;17.33;;
830;SDS011;397;50.564;7.272;2024-03-06T05:54:32;25.37;;;15.13;;
830;SDS011;397;50.564;7.272;2024-03-06T05:57:01;23.80;;;13.67;;
830;SDS011;397;50.564;7.272;2024-03-06T05:59:29;24.43;;;15.70;;
830;SDS011;397;50.564;7.272;2024-03-06T06:01:56;23.60;;;15.00;;
830;SDS011;397;50.564;7.272;2024-03-06T06:04:23;29.10;;;16.40;;
830;SDS011;397;50.564;7.272;2024-03-06T06:06:51;22.47;;;15.27;;
830;SDS011;397;50.564;7.272;2024-03-06T06:09:19;28.17;;;16.63;;
830;SDS011;397;50.564;7.272;2024-03-06T06:11:46;19.80;;;14.33;;
830;SDS011;397;50.564;7.272;2024-03-06T06:14:13;24.63;;;14.90;;
830;SDS011;397;50.564;7.272;2024-03-06T06:16:41;25.30;;;16.13;;
830;SDS011;397;50.564;7.272;2024-03-06T06:19:09;28.40;;;16.30;;
830;SDS011;397;50.564;7.272;2024-03-06T06:21:36;19.03;;;14.43;;
830;SDS011;397;50.564;7.272;2024-03-06T06:24:03;23.10;;;15.50;;
830;SDS011;397;50.564;7.272;2024-03-06T06:26:31;20.03;;;12.90;;
830;SDS011;397;50.564;7.272;2024-03-06T06:28:58;20.33;;;13.00;;
830;SDS011;397;50.564;7.272;2024-03-06T06:31:26;16.13;;;10.80;;
830;SDS011;397;50.564;7.272;2024-03-06T06:33:53;20.80;;;12.30;;
830;SDS011;397;50.564;7.272;2024-03-06T06:36:20;13.23;;;9.70;;
830;SDS011;397;50.564;7.272;2024-03-06T06:38:47;19.90;;;12.33;;
830;SDS011;397;50.564;7.272;2024-03-06T06:41:15;36.57;;;12.60;;
830;SDS011;397;50.564;7.272;2024-03-06T06:43:42;19.50;;;11.07;;
830;SDS011;397;50.564;7.272;2024-03-06T06:46:10;17.23;;;12.27;;
830;SDS011;397;50.564;7.272;2024-03-06T06:48:37;18.77;;;11.87;;
830;SDS011;397;50.564;7.272;2024-03-06T06:51:04;25.83;;;13.57;;
830;SDS011;397;50.564;7.272;2024-03-06T06:53:32;18.17;;;11.80;;
830;SDS011;397;50.564;7.272;2024-03-06T06:55:59;19.77;;;12.60;;
830;SDS011;397;50.564;7.272;2024-03-06T06:58:26;20.23;;;13.63;;
830;SDS011;397;50.564;7.272;2024-03-06T07:00:53;19.40;;;11.90;;
830;SDS011;397;50.564;7.272;2024-03-06T07:03:21;18.00;;;11.47;;
830;SDS011;397;50.564;7.272;2024-03-06T07:05:49;20.23;;;12.50;;
830;SDS011;397;50.564;7.272;2024-03-06T07:08:16;18.37;;;10.87;;
830;SDS011;397;50.564;7.272;2024-03-06T07:10:43;21.43;;;12.80;;
830;SDS011;397;50.564;7.272;2024-03-06T07:13:11;26.23;;;12.50;;
830;SDS011;397;50.564;7.272;2024-03-06T07:15:38;20.40;;;13.60;;
830;SDS011;397;50.564;7.272;2024-03-06T07:18:05;22.40;;;11.57;;
830;SDS011;397;50.564;7.272;2024-03-06T07:20:32;22.33;;;13.60;;
830;SDS011;397;50.564;7.272;2024-03-06T07:23:00;17.57;;;12.30;;
830;SDS011;397;50.564;7.272;2024-03-06T07:25:27;21.13;;;13.60;;
830;SDS011;397;50.564;7.272;2024-03-06T07:27:54;24.33;;;13.90;;
830;SDS011;397;50.564;7.272;2024-03-06T07:30:21;27.53;;;14.30;;
830;SDS011;397;50.564;7.272;2024-03-06T07:32:49;20.87;;;13.30;;
830;SDS011;397;50.564;7.272;2024-03-06T07:35:16;21.40;;;12.07;;
830;SDS011;397;50.564;7.272;2024-03-06T07:37:44;24.43;;;13.87;;
830;SDS011;397;50.564;7.272;2024-03-06T07:40:11;26.97;;;15.03;;
830;SDS011;397;50.564;7.272;2024-03-06T07:42:38;24.97;;;13.13;;
830;SDS011;397;50.564;7.272;2024-03-06T07:45:06;21.40;;;13.27;;
830;SDS011;397;50.564;7.272;2024-03-06T07:47:36;19.20;;;13.77;;
830;SDS011;397;50.564;7.272;2024-03-06T07:50:04;19.27;;;14.77;;
830;SDS011;397;50.564;7.272;2024-03-06T07:52:32;23.70;;;12.17;;
830;SDS011;397;50.564;7.272;2024-03-06T07:55:00;17.43;;;12.20;;
830;SDS011;397;50.564;7.272;2024-03-06T07:57:27;16.00;;;10.63;;
830;SDS011;397;50.564;7.272;2024-03-06T07:59:54;16.80;;;12.07;;
830;SDS011;397;50.564;7.272;2024-03-06T08:02:22;21.73;;;13.33;;
830;SDS011;397;50.564;7.272;2024-03-06T08:04:49;19.57;;;11.50;;
830;SDS011;397;50.564;7.272;2024-03-06T08:07:17;16.70;;;11.00;;
830;SDS011;397;50.564;7.272;2024-03-06T08:09:44;17.83;;;11.20;;
830;SDS011;397;50.564;7.272;2024-03-06T08:12:11;16.93;;;10.83;;
830;SDS011;397;50.564;7.272;2024-03-06T08:14:39;15.20;;;11.47;;
830;SDS011;397;50.564;7.272;2024-03-06T08:17:06;20.57;;;10.43;;
830;SDS011;397;50.564;7.272;2024-03-06T08:19:33;19.70;;;12.73;;
830;SDS011;397;50.564;7.272;2024-03-06T08:22:01;15.47;;;10.40;;
830;SDS011;397;50.564;7.272;2024-03-06T08:24:28;15.23;;;10.73;;
830;SDS011;397;50.564;7.272;2024-03-06T08:26:55;14.90;;;9.47;;
830;SDS011;397;50.564;7.272;2024-03-06T08:29:23;13.07;;;10.00;;
830;SDS011;397;50.564;7.272;2024-03-06T08:31:50;16.93;;;13.60;;
830;SDS011;397;50.564;7.272;2024-03-06T08:34:17;17.00;;;12.00;;
830;SDS011;397;50.564;7.272;2024-03-06T08:36:44;16.43;;;11.57;;
830;SDS011;397;50.564;7.272;2024-03-06T08:39:12;19.10;;;13.30;;
830;SDS011;397;50.564;7.272;2024-03-06T08:41:41;23.73;;;14.67;;
830;SDS011;397;50.564;7.272;2024-03-06T08:44:08;20.93;;;13.90;;
830;SDS011;397;50.564;7.272;2024-03-06T08:46:36;16.50;;;13.07;;
830;SDS011;397;50.564;7.272;2024-03-06T08:49:03;21.67;;;13.90;;
830;SDS011;397;50.564;7.272;2024-03-06T08:51:30;21.40;;;13.87;;
830;SDS011;397;50.564;7.272;2024-03-06T08:53:57;19.40;;;15.13;;
830;SDS011;397;50.564;7.272;2024-03-06T08:56:25;21.90;;;15.07;;
830;SDS011;397;50.564;7.272;2024-03-06T08:58:53;18.40;;;14.77;;
830;SDS011;397;50.564;7.272;2024-03-06T09:01:20;19.80;;;13.60;;
830;SDS011;397;50.564;7.272;2024-03-06T09:03:47;19.70;;;14.43;;
830;SDS011;397;50.564;7.272;2024-03-06T09:06:15;17.80;;;13.77;;
830;SDS011;397;50.564;7.272;2024-03-06T09:08:42;24.60;;;13.23;;
830;SDS011;397;50.564;7.272;2024-03-06T09:11:09;15.87;;;13.60;;
830;SDS011;397;50.564;7.272;2024-03-06T09:13:36;17.37;;;13.07;;
830;SDS011;397;50.564;7.272;2024-03-06T09:16:04;15.90;;;12.00;;
830;SDS011;397;50.564;7.272;2024-03-06T09:18:31;16.23;;;12.70;;
830;SDS011;397;50.564;7.272;2024-03-06T09:20:58;16.67;;;11.87;;
830;SDS011;397;50.564;7.272;2024-03-06T09:23:26;16.13;;;12.13;;
830;SDS011;397;50.564;7.272;2024-03-06T09:25:53;18.33;;;12.27;;
830;SDS011;397;50.564;7.272;2024-03-06T09:28:20;17.97;;;13.00;;
830;SDS011;397;50.564;7.272;2024-03-06T09:30:49;16.27;;;11.20;;
830;SDS011;397;50.564;7.272;2024-03-06T09:33:16;18.90;;;13.97;;
830;SDS011;397;50.564;7.272;2024-03-06T09:35:43;17.43;;;13.30;;
830;SDS011;397;50.564;7.272;2024-03-06T09:38:11;17.07;;;13.57;;
830;SDS011;397;50.564;7.272;2024-03-06T09:40:40;14.63;;;13.00;;
830;SDS011;397;50.564;7.272;2024-03-06T09:43:08;18.30;;;12.60;;
830;SDS011;397;50.564;7.272;2024-03-06T09:45:35;18.53;;;12.57;;
830;SDS011;397;50.564;7.272;2024-03-06T09:48:03;19.53;;;13.17;;
830;SDS011;397;50.564;7.272;2024-03-06T09:50:32;15.10;;;12.17;;
830;SDS011;397;50.564;7.272;2024-03-06T09:53:03;16.40;;;11.60;;
830;SDS011;397;50.564;7.272;2024-03-06T09:55:32;17.90;;;13.57;;
830;SDS011;397;50.564;7.272;2024-03-06T09:58:01;19.83;;;13.07;;
830;SDS011;397;50.564;7.272;2024-03-06T10:00:30;21.60;;;14.00;;
830;SDS011;397;50.564;7.272;2024-03-06T10:02:59;17.23;;;13.40;;
830;SDS011;397;50.564;7.272;2024-03-06T10:05:26;18.10;;;13.30;;
830;SDS011;397;50.564;7.272;2024-03-06T10:07:53;16.57;;;12.53;;
830;SDS011;397;50.564;7.272;2024-03-06T10:10:21;16.17;;;12.27;;
830;SDS011;397;50.564;7.272;2024-03-06T10:12:50;15.93;;;12.80;;
830;SDS011;397;50.564;7.272;2024-03-06T10:15:18;18.63;;;13.33;;
830;SDS011;397;50.564;7.272;2024-03-06T10:17:45;18.37;;;15.37;;
830;SDS011;397;50.564;7.272;2024-03-06T10:20:19;23.27;;;14.80;;
830;SDS011;397;50.564;7.272;2024-03-06T10:22:48;17.60;;;13.60;;
830;SDS011;397;50.564;7.272;2024-03-06T10:25:18;25.60;;;17.57;;
830;SDS011;397;50.564;7.272;2024-03-06T10:27:46;22.10;;;17.57;;
830;SDS011;397;50.564;7.272;2024-03-06T10:30:14;26.33;;;19.77;;
830;SDS011;397;50.564;7.272;2024-03-06T10:32:42;26.60;;;18.03;;
830;SDS011;397;50.564;7.272;2024-03-06T10:35:17;30.57;;;18.33;;
830;SDS011;397;50.564;7.272;2024-03-06T10:37:39;31.60;;;21.50;;
830;SDS011;397;50.564;7.272;2024-03-06T10:40:07;32.17;;;20.97;;
830;SDS011;397;50.564;7.272;2024-03-06T10:42:37;41.07;;;21.03;;
830;SDS011;397;50.564;7.272;2024-03-06T10:45:07;30.97;;;21.90;;
830;SDS011;397;50.564;7.272;2024-03-06T10:47:35;31.20;;;23.80;;
830;SDS011;397;50.564;7.272;2024-03-06T10:50:03;32.27;;;22.77;;
830;SDS011;397;50.564;7.272;2024-03-06T10:52:33;30.97;;;23.50;;
830;SDS011;397;50.564;7.272;2024-03-06T10:55:01;32.07;;;22.47;;
830;SDS011;397;50.564;7.272;2024-03-06T10:57:29;31.67;;;22.37;;
830;SDS011;397;50.564;7.272;2024-03-06T10:59:57;29.87;;;21.50;;
830;SDS011;397;50.564;7.272;2024-03-06T11:02:25;27.37;;;21.10;;
830;SDS011;397;50.564;7.272;2024-03-06T11:04:54;31.57;;;22.20;;
830;SDS011;397;50.564;7.272;2024-03-06T11:07:22;28.33;;;18.90;;
830;SDS011;397;50.564;7.272;2024-03-06T11:09:49;23.17;;;16.70;;
830;SDS011;397;50.564;7.272;2024-03-06T11:12:33;17.73;;;12.53;;
830;SDS011;397;50.564;7.272;2024-03-06T11:15:08;18.27;;;11.47;;
830;SDS011;397;50.564;7.272;2024-03-06T11:17:30;18.80;;;12.53;;
830;SDS011;397;50.564;7.272;2024-03-06T11:28:06;13.30;;;9.80;;
830;SDS011;397;50.564;7.272;2024-03-06T11:30:44;12.97;;;8.60;;
830;SDS011;397;50.564;7.272;2024-03-06T11:33:04;12.73;;;8.77;;
830;SDS011;397;50.564;7.272;2024-03-06T11:35:31;12.13;;;8.70;;
830;SDS011;397;50.564;7.272;2024-03-06T11:37:59;15.67;;;10.80;;
830;SDS011;397;50.564;7.272;2024-03-06T11:40:26;14.53;;;10.93;;
830;SDS011;397;50.564;7.272;2024-03-06T11:42:53;15.77;;;10.33;;
830;SDS011;397;50.564;7.272;2024-03-06T11:45:21;12.33;;;9.73;;
830;SDS011;397;50.564;7.272;2024-03-06T11:47:59;12.00;;;9.10;;
830;SDS011;397;50.564;7.272;2024-03-06T11:50:27;10.30;;;7.53;;
830;SDS011;397;50.564;7.272;2024-03-06T11:52:56;10.20;;;6.47;;
830;SDS011;397;50.564;7.272;2024-03-06T11:55:24;11.53;;;7.60;;
830;SDS011;397;50.564;7.272;2024-03-06T11:57:54;8.73;;;7.27;;
830;SDS011;397;50.564;7.272;2024-03-06T12:00:22;10.67;;;7.40;;
830;SDS011;397;50.564;7.272;2024-03-06T12:02:52;4.53;;;3.00;;
830;SDS011;397;50.564;7.272;2024-03-06T12:05:19;5.00;;;3.00;;
830;SDS011;397;50.564;7.272;2024-03-06T12:07:47;4.03;;;2.93;;
830;SDS011;397;50.564;7.272;2024-03-06T12:10:18;4.90;;;3.13;;
830;SDS011;397;50.564;7.272;2024-03-06T12:12:45;5.60;;;3.77;;
830;SDS011;397;50.564;7.272;2024-03-06T12:15:14;4.30;;;3.00;;
830;SDS011;397;50.564;7.272;2024-03-06T12:17:42;6.70;;;3.10;;
830;SDS011;397;50.564;7.272;2024-03-06T12:20:11;4.90;;;3.70;;
830;SDS011;397;50.564;7.272;2024-03-06T12:22:49;6.13;;;4.47;;
830;SDS011;397;50.564;7.272;2024-03-06T12:25:23;4.90;;;3.77;;
830;SDS011;397;50.564;7.272;2024-03-06T12:27:51;6.93;;;3.63;;
830;SDS011;397;50.564;7.272;2024-03-06T12:30:19;6.20;;;3.50;;
830;SDS011;397;50.564;7.272;2024-03-06T12:32:56;4.97;;;3.40;;
830;SDS011;397;50.564;7.272;2024-03-06T12:35:24;6.10;;;3.50;;
830;SDS011;397;50.564;7.272;2024-03-06T12:37:52;4.80;;;3.23;;
830;SDS011;397;50.564;7.272;2024-03-06T12:40:19;5.57;;;3.70;;
830;SDS011;397;50.564;7.272;2024-03-06T12:42:47;6.33;;;3.50;;
830;SDS011;397;50.564;7.272;2024-03-06T12:45:15;5.23;;;3.23;;
830;SDS011;397;50.564;7.272;2024-03-06T12:47:46;6.13;;;4.30;;
830;SDS011;397;50.564;7.272;2024-03-06T12:50:17;6.63;;;4.53;;
830;SDS011;397;50.564;7.272;2024-03-06T12:52:45;7.00;;;5.73;;
830;SDS011;397;50.564;7.272;2024-03-06T12:55:12;6.00;;;4.50;;
830;SDS011;397;50.564;7.272;2024-03-06T12:57:40;7.53;;;6.13;;
830;SDS011;397;50.564;7.272;2024-03-06T13:00:08;5.87;;;4.73;;
830;SDS011;397;50.564;7.272;2024-03-06T13:02:37;5.70;;;5.00;;
830;SDS011;397;50.564;7.272;2024-03-06T13:05:04;6.30;;;5.53;;
830;SDS011;397;50.564;7.272;2024-03-06T13:07:31;6.00;;;5.20;;
830;SDS011;397;50.564;7.272;2024-03-06T13:09:59;6.77;;;5.33;;
830;SDS011;397;50.564;7.272;2024-03-06T13:12:26;5.97;;;5.07;;
830;SDS011;397;50.564;7.272;2024-03-06T13:14:54;6.80;;;5.37;;
830;SDS011;397;50.564;7.272;2024-03-06T13:17:21;8.97;;;5.13;;
830;SDS011;397;50.564;7.272;2024-03-06T13:19:49;6.80;;;5.20;;
830;SDS011;397;50.564;7.272;2024-03-06T13:22:16;7.20;;;6.10;;
830;SDS011;397;50.564;7.272;2024-03-06T13:24:43;7.20;;;5.90;;
830;SDS011;397;50.564;7.272;2024-03-06T13:27:11;7.30;;;5.40;;
830;SDS011;397;50.564;7.272;2024-03-06T13:29:38;4.90;;;4.40;;
830;SDS011;397;50.564;7.272;2024-03-06T13:32:06;8.60;;;5.30;;
830;SDS011;397;50.564;7.272;2024-03-06T13:34:34;5.73;;;5.13;;
830;SDS011;397;50.564;7.272;2024-03-06T13:37:01;6.90;;;4.43;;
830;SDS011;397;50.564;7.272;2024-03-06T13:39:28;6.60;;;5.83;;
830;SDS011;397;50.564;7.272;2024-03-06T13:41:56;7.53;;;6.00;;
830;SDS011;397;50.564;7.272;2024-03-06T13:44:24;5.57;;;5.03;;
830;SDS011;397;50.564;7.272;2024-03-06T13:46:51;6.93;;;4.67;;
830;SDS011;397;50.564;7.272;2024-03-06T13:52:04;6.10;;;5.13;;
830;SDS011;397;50.564;7.272;2024-03-06T13:54:33;7.50;;;6.33;;
830;SDS011;397;50.564;7.272;2024-03-06T13:57:01;5.60;;;5.00;;
830;SDS011;397;50.564;7.272;2024-03-06T13:59:31;6.10;;;5.50;;
830;SDS011;397;50.564;7.272;2024-03-06T14:01:59;6.70;;;5.60;;
830;SDS011;397;50.564;7.272;2024-03-06T14:04:27;5.90;;;5.30;;
830;SDS011;397;50.564;7.272;2024-03-06T14:06:54;7.53;;;5.40;;
830;SDS011;397;50.564;7.272;2024-03-06T14:09:23;5.60;;;4.60;;
830;SDS011;397;50.564;7.272;2024-03-06T14:11:51;5.90;;;4.63;;
830;SDS011;397;50.564;7.272;2024-03-06T14:14:19;5.53;;;4.10;;
830;SDS011;397;50.564;7.272;2024-03-06T14:16:46;6.00;;;4.90;;
830;SDS011;397;50.564;7.272;2024-03-06T14:19:14;6.47;;;5.07;;
830;SDS011;397;50.564;7.272;2024-03-06T14:21:41;5.20;;;4.70;;
830;SDS011;397;50.564;7.272;2024-03-06T14:24:08;5.60;;;5.00;;
830;SDS011;397;50.564;7.272;2024-03-06T14:26:36;5.60;;;4.30;;
830;SDS011;397;50.564;7.272;2024-03-06T14:29:03;6.20;;;4.67;;
830;SDS011;397;50.564;7.272;2024-03-06T14:31:32;6.23;;;4.80;;
830;SDS011;397;50.564;7.272;2024-03-06T14:33:59;5.40;;;4.90;;
830;SDS011;397;50.564;7.272;2024-03-06T14:36:26;7.03;;;5.20;;
830;SDS011;397;50.564;7.272;2024-03-06T14:38:54;6.10;;;4.80;;
830;SDS011;397;50.564;7.272;2024-03-06T14:41:21;5.20;;;4.70;;
830;SDS011;397;50.564;7.272;2024-03-06T14:43:49;5.40;;;4.10;;
830;SDS011;397;50.564;7.272;2024-03-06T14:46:16;4.97;;;4.27;;
830;SDS011;397;50.564;7.272;2024-03-06T14:48:44;8.73;;;4.40;;
830;SDS011;397;50.564;7.272;2024-03-06T14:51:12;5.23;;;4.20;;
830;SDS011;397;50.564;7.272;2024-03-06T14:53:39;6.60;;;5.20;;
830;SDS011;397;50.564;7.272;2024-03-06T14:56:06;5.50;;;5.00;;
830;SDS011;397;50.564;7.272;2024-03-06T14:58:34;5.87;;;4.87;;
830;SDS011;397;50.564;7.272;2024-03-06T15:01:01;6.60;;;5.90;;
830;SDS011;397;50.564;7.272;2024-03-06T15:03:29;8.33;;;5.97;;
830;SDS011;397;50.564;7.272;2024-03-06T15:05:56;7.00;;;5.77;;
830;SDS011;397;50.564;7.272;2024-03-06T15:08:24;8.20;;;6.50;;
830;SDS011;397;50.564;7.272;2024-03-06T15:10:51;6.73;;;4.63;;
830;SDS011;397;50.564;7.272;2024-03-06T15:13:20;7.83;;;7.03;;
830;SDS011;397;50.564;7.272;2024-03-06T15:15:49;8.03;;;6.10;;
830;SDS011;397;50.564;7.272;2024-03-06T15:18:16;7.40;;;6.70;;
830;SDS011;397;50.564;7.272;2024-03-06T15:20:44;7.07;;;5.37;;
830;SDS011;397;50.564;7.272;2024-03-06T15:23:11;5.80;;;5.03;;
830;SDS011;397;50.564;7.272;2024-03-06T15:25:38;7.33;;;5.27;;
830;SDS011;397;50.564;7.272;2024-03-06T15:28:06;5.20;;;4.60;;
830;SDS011;397;50.564;7.272;2024-03-06T15:30:33;6.33;;;5.27;;
830;SDS011;397;50.564;7.272;2024-03-06T15:33:01;5.23;;;4.70;;
830;SDS011;397;50.564;7.272;2024-03-06T15:35:29;7.83;;;5.10;;
830;SDS011;397;50.564;7.272;2024-03-06T15:37:56;8.43;;;5.93;;